Time,TemperatureF,DewpointF,PressureIn,WindDirection,WindDirectionDegrees,WindSpeedMPH,WindSpeedGustMPH,Humidity,HourlyPrecipIn,Conditions,Clouds,dailyrainin,SoftwareType,DateUTC
2013-02-27 00:00:00,34.0,27.5,30.06,ESE,112,3.1,4.3,77,0.00,,---,0.00,VWS V14.00,2013-02-27 05:00:00,
2013-02-27 00:05:00,34.0,27.5,30.06,East,90,1.6,2.5,77,0.00,,---,0.00,VWS V14.00,2013-02-27 05:05:00,
2013-02-27 00:10:00,34.0,27.9,30.06,East,90,4.0,5.8,78,0.00,,---,0.00,VWS V14.00,2013-02-27 05:10:00,
2013-02-27 00:15:00,34.0,28.2,30.06,ENE,68,2.9,3.6,79,0.00,,---,0.00,VWS V14.00,2013-02-27 05:15:00,
2013-02-27 00:20:00,33.8,28.3,30.06,NE,45,2.9,3.8,80,0.00,,---,0.00,VWS V14.00,2013-02-27 05:20:00,
2013-02-27 00:25:00,33.8,28.3,30.03,ENE,68,4.7,4.7,80,0.00,,---,0.00,VWS V14.00,2013-02-27 05:25:00,
2013-02-27 00:30:00,33.6,28.7,30.03,ENE,68,3.4,5.8,82,0.00,,---,0.00,VWS V14.00,2013-02-27 05:30:00,
2013-02-27 00:35:00,33.6,29.3,30.03,NE,45,1.1,2.9,84,0.00,,---,0.00,VWS V14.00,2013-02-27 05:35:00,
2013-02-27 00:40:00,33.6,29.6,30.03,NE,45,0.0,4.9,85,0.00,,---,0.00,VWS V14.00,2013-02-27 05:40:00,
2013-02-27 00:45:00,33.4,29.7,30.03,NE,45,2.7,3.1,86,0.04,,---,0.04,VWS V14.00,2013-02-27 05:45:00,
2013-02-27 00:50:00,33.4,30.0,30.03,ENE,68,4.0,10.5,87,0.04,,---,0.04,VWS V14.00,2013-02-27 05:50:00,
2013-02-27 00:55:00,33.4,30.5,30.00,NNE,22,5.6,5.8,89,0.04,,---,0.04,VWS V14.00,2013-02-27 05:55:00,
2013-02-27 01:00:00,33.4,30.5,30.00,ENE,68,4.3,4.3,89,0.04,,---,0.04,VWS V14.00,2013-02-27 06:00:00,
2013-02-27 01:05:00,33.4,30.8,30.00,ENE,68,3.4,3.4,90,0.04,,---,0.04,VWS V14.00,2013-02-27 06:05:00,
2013-02-27 01:10:00,33.4,30.8,30.00,NNE,22,6.0,6.0,90,0.00,,---,0.04,VWS V14.00,2013-02-27 06:10:00,
2013-02-27 01:15:00,33.6,31.3,30.00,WNW,292,3.8,5.4,91,0.00,,---,0.04,VWS V14.00,2013-02-27 06:15:00,
2013-02-27 01:20:00,33.6,31.5,30.00,WNW,292,3.1,4.3,92,0.00,,---,0.04,VWS V14.00,2013-02-27 06:20:00,
2013-02-27 01:25:00,33.6,31.5,29.97,West,270,4.0,7.4,92,0.00,,---,0.04,VWS V14.00,2013-02-27 06:25:00,
2013-02-27 01:30:00,33.6,31.5,29.97,ESE,112,5.6,10.5,92,0.00,,---,0.04,VWS V14.00,2013-02-27 06:30:00,
2013-02-27 01:35:00,33.8,31.7,29.97,NE,45,5.4,6.5,92,0.00,,---,0.04,VWS V14.00,2013-02-27 06:35:00,
2013-02-27 01:40:00,33.8,31.7,30.00,ENE,68,3.1,6.3,92,0.00,,---,0.04,VWS V14.00,2013-02-27 06:40:00,
2013-02-27 01:45:00,33.8,32.0,30.00,NE,45,2.9,5.6,93,0.00,,---,0.04,VWS V14.00,2013-02-27 06:45:00,
2013-02-27 01:50:00,34.0,32.2,30.00,ENE,68,7.6,7.6,93,0.00,,---,0.04,VWS V14.00,2013-02-27 06:50:00,
2013-02-27 01:55:00,34.0,32.4,29.97,ENE,68,2.0,6.9,94,0.00,,---,0.04,VWS V14.00,2013-02-27 06:55:00,
2013-02-27 02:00:00,34.0,32.4,29.97,NNW,338,4.0,6.3,94,0.00,,---,0.04,VWS V14.00,2013-02-27 07:00:00,
2013-02-27 02:05:00,34.2,32.6,29.97,NE,45,3.4,4.3,94,0.00,,---,0.04,VWS V14.00,2013-02-27 07:05:00,
2013-02-27 02:10:00,34.2,32.6,30.00,NE,45,3.4,3.4,94,0.00,,---,0.04,VWS V14.00,2013-02-27 07:10:00,
2013-02-27 02:15:00,34.2,32.6,30.00,NNE,22,3.6,4.3,94,0.00,,---,0.04,VWS V14.00,2013-02-27 07:15:00,
2013-02-27 02:20:00,34.3,32.8,30.00,ENE,68,2.5,2.5,94,0.04,,---,0.08,VWS V14.00,2013-02-27 07:20:00,
2013-02-27 02:25:00,34.3,33.1,30.00,ENE,68,2.2,3.4,95,0.04,,---,0.08,VWS V14.00,2013-02-27 07:25:00,
2013-02-27 02:30:00,34.3,32.8,30.00,East,90,3.1,4.0,94,0.04,,---,0.08,VWS V14.00,2013-02-27 07:30:00,
2013-02-27 02:35:00,34.3,33.1,30.00,NE,45,2.5,4.3,95,0.04,,---,0.08,VWS V14.00,2013-02-27 07:35:00,
2013-02-27 02:40:00,34.3,33.1,29.97,NE,45,3.6,3.6,95,0.08,,---,0.13,VWS V14.00,2013-02-27 07:40:00,
2013-02-27 02:45:00,34.3,33.1,29.97,ENE,68,2.9,3.6,95,0.08,,---,0.13,VWS V14.00,2013-02-27 07:45:00,
2013-02-27 02:50:00,34.3,33.1,29.97,NE,45,4.0,8.5,95,0.12,,---,0.17,VWS V14.00,2013-02-27 07:50:00,
2013-02-27 02:55:00,34.3,33.3,29.97,SE,135,5.6,5.6,96,0.12,,---,0.17,VWS V14.00,2013-02-27 07:55:00,
2013-02-27 03:00:00,34.3,33.3,29.97,WSW,248,2.9,4.0,96,0.12,,---,0.17,VWS V14.00,2013-02-27 08:00:00,
2013-02-27 03:05:00,34.3,33.3,29.97,ENE,68,3.1,3.8,96,0.12,,---,0.17,VWS V14.00,2013-02-27 08:05:00,
2013-02-27 03:10:00,34.3,33.3,29.94,SSE,158,4.0,7.8,96,0.04,,---,0.21,VWS V14.00,2013-02-27 08:10:00,
2013-02-27 03:15:00,34.3,33.3,29.94,NNW,338,6.3,6.3,96,0.04,,---,0.21,VWS V14.00,2013-02-27 08:15:00,
2013-02-27 03:20:00,34.3,33.3,29.94,ENE,68,4.3,7.6,96,0.08,,---,0.25,VWS V14.00,2013-02-27 08:20:00,
2013-02-27 03:25:00,34.3,33.3,29.94,East,90,3.1,3.8,96,0.08,,---,0.25,VWS V14.00,2013-02-27 08:25:00,
2013-02-27 03:30:00,34.2,33.1,29.94,SSW,202,8.1,8.1,96,0.08,,---,0.25,VWS V14.00,2013-02-27 08:30:00,
2013-02-27 03:35:00,34.3,33.3,29.94,NNE,22,10.7,10.7,96,0.08,,---,0.25,VWS V14.00,2013-02-27 08:35:00,
2013-02-27 03:40:00,34.3,33.6,29.91,NNW,338,5.4,5.8,97,0.13,,---,0.29,VWS V14.00,2013-02-27 08:40:00,
2013-02-27 03:45:00,34.3,33.6,29.91,NNE,22,12.1,12.1,97,0.13,,---,0.29,VWS V14.00,2013-02-27 08:45:00,
2013-02-27 03:50:00,34.3,33.6,29.91,ENE,68,3.4,8.7,97,0.13,,---,0.29,VWS V14.00,2013-02-27 08:50:00,
2013-02-27 03:55:00,34.5,33.8,29.91,ENE,68,3.8,6.5,97,0.13,,---,0.29,VWS V14.00,2013-02-27 08:55:00,
2013-02-27 04:00:00,34.5,33.8,29.91,NNE,22,6.3,7.8,97,0.13,,---,0.29,VWS V14.00,2013-02-27 09:00:00,
2013-02-27 04:05:00,34.5,33.8,29.91,NNE,22,4.3,6.3,97,0.17,,---,0.33,VWS V14.00,2013-02-27 09:05:00,
2013-02-27 04:10:00,34.5,33.8,29.91,NE,45,8.5,8.5,97,0.00,,---,0.33,VWS V14.00,2013-02-27 09:10:00,
2013-02-27 04:15:00,34.7,33.9,29.91,NNE,22,3.6,6.0,97,0.00,,---,0.33,VWS V14.00,2013-02-27 09:15:00,
2013-02-27 04:20:00,34.7,33.9,29.91,NE,45,6.0,7.2,97,0.00,,---,0.33,VWS V14.00,2013-02-27 09:20:00,
2013-02-27 04:25:00,34.7,33.9,29.91,ENE,68,8.7,8.7,97,0.00,,---,0.33,VWS V14.00,2013-02-27 09:25:00,
2013-02-27 04:30:00,34.7,33.9,29.91,NE,45,4.3,8.7,97,0.00,,---,0.33,VWS V14.00,2013-02-27 09:30:00,
2013-02-27 04:35:00,34.7,33.9,29.91,NE,45,7.2,7.2,97,0.00,,---,0.33,VWS V14.00,2013-02-27 09:35:00,
2013-02-27 04:40:00,34.7,33.9,29.88,NW,315,8.1,9.8,97,0.00,,---,0.33,VWS V14.00,2013-02-27 09:40:00,
2013-02-27 04:45:00,34.7,33.9,29.88,East,90,2.0,6.3,97,0.00,,---,0.33,VWS V14.00,2013-02-27 09:45:00,
2013-02-27 04:50:00,34.7,33.9,29.88,NNW,338,4.9,7.4,97,0.00,,---,0.33,VWS V14.00,2013-02-27 09:50:00,
2013-02-27 04:55:00,34.7,33.9,29.88,NE,45,4.3,4.3,97,0.00,,---,0.33,VWS V14.00,2013-02-27 09:55:00,
2013-02-27 05:00:00,34.7,33.9,29.88,SSE,158,4.3,4.3,97,0.00,,---,0.33,VWS V14.00,2013-02-27 10:00:00,
2013-02-27 05:05:00,34.7,33.9,29.88,NE,45,3.6,3.6,97,0.04,,---,0.38,VWS V14.00,2013-02-27 10:05:00,
2013-02-27 05:10:00,34.7,33.9,29.88,NNE,22,4.9,8.1,97,0.00,,---,0.38,VWS V14.00,2013-02-27 10:10:00,
2013-02-27 05:15:00,34.7,33.9,29.88,NNW,338,7.2,7.2,97,0.00,,---,0.38,VWS V14.00,2013-02-27 10:15:00,
2013-02-27 05:20:00,34.7,33.9,29.88,NNE,22,3.8,9.4,97,0.00,,---,0.38,VWS V14.00,2013-02-27 10:20:00,
2013-02-27 05:25:00,34.7,33.9,29.88,NNW,338,3.6,5.4,97,0.00,,---,0.38,VWS V14.00,2013-02-27 10:25:00,
2013-02-27 05:30:00,34.7,33.9,29.88,ESE,112,3.6,7.8,97,0.00,,---,0.38,VWS V14.00,2013-02-27 10:30:00,
2013-02-27 05:35:00,34.7,34.2,29.88,NE,45,2.0,2.7,98,0.04,,---,0.41,VWS V14.00,2013-02-27 10:35:00,
2013-02-27 05:40:00,34.9,34.4,29.85,ENE,68,3.6,6.9,98,0.04,,---,0.41,VWS V14.00,2013-02-27 10:40:00,
2013-02-27 05:45:00,34.7,34.2,29.85,SSE,158,2.7,3.4,98,0.04,,---,0.41,VWS V14.00,2013-02-27 10:45:00,
2013-02-27 05:50:00,34.9,34.4,29.85,ENE,68,13.2,13.2,98,0.08,,---,0.46,VWS V14.00,2013-02-27 10:50:00,
2013-02-27 05:55:00,34.9,34.4,29.85,NNE,22,2.5,3.6,98,0.08,,---,0.46,VWS V14.00,2013-02-27 10:55:00,
2013-02-27 06:00:00,34.9,34.4,29.85,NNW,338,3.4,3.4,98,0.08,,---,0.46,VWS V14.00,2013-02-27 11:00:00,
2013-02-27 06:05:00,34.9,34.4,29.85,NNE,22,4.7,9.8,98,0.08,,---,0.46,VWS V14.00,2013-02-27 11:05:00,
2013-02-27 06:10:00,34.9,34.4,29.85,ENE,68,3.4,4.0,98,0.00,,---,0.46,VWS V14.00,2013-02-27 11:10:00,
2013-02-27 06:15:00,34.9,34.4,29.85,NE,45,4.3,4.3,98,0.00,,---,0.46,VWS V14.00,2013-02-27 11:15:00,
2013-02-27 06:20:00,34.9,34.4,29.85,NE,45,5.6,10.7,98,0.00,,---,0.46,VWS V14.00,2013-02-27 11:20:00,
2013-02-27 06:25:00,35.1,34.5,29.82,NNE,22,7.4,7.4,98,0.00,,---,0.46,VWS V14.00,2013-02-27 11:25:00,
2013-02-27 06:30:00,35.1,34.5,29.82,NNE,22,5.6,6.0,98,0.00,,---,0.46,VWS V14.00,2013-02-27 11:30:00,
2013-02-27 06:35:00,35.1,34.5,29.82,NNW,338,3.4,6.5,98,0.00,,---,0.46,VWS V14.00,2013-02-27 11:35:00,
2013-02-27 06:40:00,35.2,34.7,29.82,NE,45,6.5,9.8,98,0.04,,---,0.50,VWS V14.00,2013-02-27 11:40:00,
2013-02-27 06:45:00,35.4,34.9,29.82,NE,45,4.9,7.6,98,0.04,,---,0.50,VWS V14.00,2013-02-27 11:45:00,
2013-02-27 06:50:00,35.6,35.1,29.82,West,270,5.8,5.8,98,0.04,,---,0.50,VWS V14.00,2013-02-27 11:50:00,
2013-02-27 06:55:00,35.6,35.1,29.82,ENE,68,5.4,5.8,98,0.04,,---,0.50,VWS V14.00,2013-02-27 11:55:00,
2013-02-27 07:00:00,35.6,35.1,29.82,NNW,338,1.6,3.6,98,0.04,,---,0.50,VWS V14.00,2013-02-27 12:00:00,
2013-02-27 07:05:00,35.8,35.3,29.82,NE,45,2.5,6.0,98,0.04,,---,0.50,VWS V14.00,2013-02-27 12:05:00,
2013-02-27 07:10:00,36.0,35.5,29.79,East,90,5.6,8.5,98,0.00,,---,0.50,VWS V14.00,2013-02-27 12:10:00,
2013-02-27 07:15:00,36.1,35.6,29.79,ENE,68,6.3,7.8,98,0.00,,---,0.50,VWS V14.00,2013-02-27 12:15:00,
2013-02-27 07:20:00,36.1,35.6,29.79,ENE,68,10.5,10.5,98,0.00,,---,0.50,VWS V14.00,2013-02-27 12:20:00,
2013-02-27 07:25:00,36.1,35.6,29.82,ESE,112,2.2,2.2,98,0.00,,---,0.50,VWS V14.00,2013-02-27 12:25:00,
2013-02-27 07:30:00,36.1,35.6,29.82,East,90,2.7,8.7,98,0.00,,---,0.50,VWS V14.00,2013-02-27 12:30:00,
2013-02-27 07:35:00,36.3,35.8,29.82,South,180,6.5,6.5,98,0.04,,---,0.54,VWS V14.00,2013-02-27 12:35:00,
2013-02-27 07:40:00,36.5,36.0,29.79,NNW,338,2.7,8.5,98,0.04,,---,0.54,VWS V14.00,2013-02-27 12:40:00,
2013-02-27 07:45:00,36.7,36.2,29.79,NE,45,4.0,6.0,98,0.04,,---,0.54,VWS V14.00,2013-02-27 12:45:00,
2013-02-27 07:50:00,37.0,36.5,29.79,ENE,68,2.0,5.6,98,0.08,,---,0.58,VWS V14.00,2013-02-27 12:50:00,
2013-02-27 07:55:00,37.2,36.7,29.79,North,0,2.5,5.8,98,0.08,,---,0.58,VWS V14.00,2013-02-27 12:55:00,
2013-02-27 08:00:00,37.4,36.9,29.79,NE,45,6.0,6.0,98,0.08,,---,0.58,VWS V14.00,2013-02-27 13:00:00,
2013-02-27 08:05:00,37.6,37.1,29.79,NE,45,2.7,3.6,98,0.08,,---,0.58,VWS V14.00,2013-02-27 13:05:00,
2013-02-27 08:10:00,37.8,37.2,29.79,NNE,22,4.3,4.3,98,0.04,,---,0.62,VWS V14.00,2013-02-27 13:10:00,
2013-02-27 08:15:00,38.1,37.6,29.79,WSW,248,2.2,2.5,98,0.04,,---,0.62,VWS V14.00,2013-02-27 13:15:00,
2013-02-27 08:20:00,38.3,37.8,29.79,WNW,292,1.3,2.7,98,0.04,,---,0.62,VWS V14.00,2013-02-27 13:20:00,
2013-02-27 08:25:00,38.7,38.2,29.79,ENE,68,2.9,3.4,98,0.04,,---,0.62,VWS V14.00,2013-02-27 13:25:00,
2013-02-27 08:30:00,38.8,38.3,29.79,ENE,68,2.7,3.8,98,0.04,,---,0.62,VWS V14.00,2013-02-27 13:30:00,
2013-02-27 08:35:00,39.2,38.7,29.79,WNW,292,3.4,6.3,98,0.04,,---,0.62,VWS V14.00,2013-02-27 13:35:00,
2013-02-27 08:40:00,39.6,39.0,29.76,NE,45,8.7,8.7,98,0.04,,---,0.62,VWS V14.00,2013-02-27 13:40:00,
2013-02-27 08:45:00,39.7,39.2,29.76,East,90,4.7,4.7,98,0.08,,---,0.67,VWS V14.00,2013-02-27 13:45:00,
2013-02-27 08:50:00,39.9,39.4,29.76,NE,45,2.5,4.3,98,0.08,,---,0.67,VWS V14.00,2013-02-27 13:50:00,
2013-02-27 08:55:00,40.1,39.6,29.76,NE,45,4.3,6.7,98,0.08,,---,0.67,VWS V14.00,2013-02-27 13:55:00,
2013-02-27 09:00:00,40.3,39.8,29.76,ENE,68,5.8,7.2,98,0.08,,---,0.67,VWS V14.00,2013-02-27 14:00:00,
2013-02-27 09:05:00,40.5,39.7,29.76,ENE,68,2.9,3.6,97,0.08,,---,0.67,VWS V14.00,2013-02-27 14:05:00,
2013-02-27 09:10:00,40.6,39.9,29.74,ENE,68,8.1,8.1,97,0.00,,---,0.67,VWS V14.00,2013-02-27 14:10:00,
2013-02-27 09:15:00,41.0,40.0,29.74,NNE,22,3.4,3.8,96,0.00,,---,0.67,VWS V14.00,2013-02-27 14:15:00,
2013-02-27 09:20:00,41.4,40.3,29.74,ENE,68,5.8,11.9,96,0.00,,---,0.67,VWS V14.00,2013-02-27 14:20:00,
2013-02-27 09:25:00,41.7,40.7,29.74,East,90,6.0,9.6,96,0.00,,---,0.67,VWS V14.00,2013-02-27 14:25:00,
2013-02-27 09:30:00,41.7,40.4,29.74,ENE,68,2.7,5.4,95,0.00,,---,0.67,VWS V14.00,2013-02-27 14:30:00,
2013-02-27 09:35:00,42.1,40.8,29.74,ENE,68,2.0,4.9,95,0.00,,---,0.67,VWS V14.00,2013-02-27 14:35:00,
2013-02-27 09:40:00,42.1,40.8,29.74,SSW,202,3.1,3.1,95,0.00,,---,0.67,VWS V14.00,2013-02-27 14:40:00,
2013-02-27 09:45:00,42.4,41.1,29.74,East,90,5.6,5.6,95,0.00,,---,0.67,VWS V14.00,2013-02-27 14:45:00,
2013-02-27 09:50:00,42.8,41.2,29.74,SE,135,2.0,2.9,94,0.00,,---,0.67,VWS V14.00,2013-02-27 14:50:00,
2013-02-27 09:55:00,42.8,40.9,29.74,NE,45,2.5,3.8,93,0.04,,---,0.71,VWS V14.00,2013-02-27 14:55:00,
2013-02-27 10:00:00,42.3,40.4,29.74,ENE,68,4.0,7.6,93,0.04,,---,0.71,VWS V14.00,2013-02-27 15:00:00,
2013-02-27 10:05:00,42.3,40.7,29.74,NNE,22,3.4,4.0,94,0.04,,---,0.71,VWS V14.00,2013-02-27 15:05:00,
2013-02-27 10:10:00,42.3,40.7,29.71,ENE,68,4.0,6.5,94,0.00,,---,0.71,VWS V14.00,2013-02-27 15:10:00,
2013-02-27 10:15:00,42.1,40.5,29.71,NNE,22,8.7,8.7,94,0.00,,---,0.71,VWS V14.00,2013-02-27 15:15:00,
2013-02-27 10:20:00,42.4,40.8,29.71,NW,315,5.4,10.1,94,0.04,,---,0.75,VWS V14.00,2013-02-27 15:20:00,
2013-02-27 10:25:00,42.4,40.8,29.71,ENE,68,2.5,5.4,94,0.04,,---,0.75,VWS V14.00,2013-02-27 15:25:00,
2013-02-27 10:30:00,42.8,41.2,29.71,SSW,202,1.6,4.0,94,0.04,,---,0.75,VWS V14.00,2013-02-27 15:30:00,
2013-02-27 10:35:00,43.0,41.1,29.71,ESE,112,3.6,8.1,93,0.04,,---,0.75,VWS V14.00,2013-02-27 15:35:00,
2013-02-27 10:40:00,43.0,41.1,29.71,ESE,112,2.5,4.0,93,0.04,,---,0.75,VWS V14.00,2013-02-27 15:40:00,
2013-02-27 10:45:00,43.2,41.3,29.71,SSE,158,3.1,3.1,93,0.04,,---,0.75,VWS V14.00,2013-02-27 15:45:00,
2013-02-27 10:50:00,43.3,41.2,29.71,NNE,22,6.5,6.5,92,0.08,,---,0.79,VWS V14.00,2013-02-27 15:50:00,
2013-02-27 10:55:00,43.3,41.2,29.71,SSE,158,3.6,5.6,92,0.08,,---,0.79,VWS V14.00,2013-02-27 15:55:00,
2013-02-27 11:00:00,43.3,40.9,29.71,East,90,5.6,5.6,91,0.08,,---,0.79,VWS V14.00,2013-02-27 16:00:00,
2013-02-27 11:05:00,43.3,40.9,29.71,ENE,68,4.0,5.8,91,0.08,,---,0.79,VWS V14.00,2013-02-27 16:05:00,
2013-02-27 11:10:00,43.3,40.9,29.68,NE,45,3.6,4.9,91,0.00,,---,0.79,VWS V14.00,2013-02-27 16:10:00,
2013-02-27 11:15:00,43.3,40.9,29.68,East,90,5.4,6.3,91,0.04,,---,0.83,VWS V14.00,2013-02-27 16:15:00,
2013-02-27 11:20:00,43.3,40.9,29.68,SE,135,6.0,6.0,91,0.04,,---,0.83,VWS V14.00,2013-02-27 16:20:00,
2013-02-27 11:25:00,43.3,40.9,29.68,ENE,68,7.6,7.6,91,0.04,,---,0.83,VWS V14.00,2013-02-27 16:25:00,
2013-02-27 11:30:00,43.2,40.7,29.68,South,180,2.5,6.0,91,0.04,,---,0.83,VWS V14.00,2013-02-27 16:30:00,
2013-02-27 11:35:00,43.0,40.5,29.68,NNE,22,3.6,7.6,91,0.04,,---,0.83,VWS V14.00,2013-02-27 16:35:00,
2013-02-27 11:40:00,42.8,40.4,29.68,NE,45,5.8,5.8,91,0.04,,---,0.83,VWS V14.00,2013-02-27 16:40:00,
2013-02-27 11:45:00,42.6,40.5,29.68,East,90,7.6,7.6,92,0.04,,---,0.83,VWS V14.00,2013-02-27 16:45:00,
2013-02-27 11:50:00,42.6,40.5,29.68,ESE,112,2.9,3.1,92,0.08,,---,0.87,VWS V14.00,2013-02-27 16:50:00,
2013-02-27 11:55:00,42.4,40.3,29.68,ESE,112,5.8,5.8,92,0.08,,---,0.87,VWS V14.00,2013-02-27 16:55:00,
2013-02-27 12:00:00,42.4,40.3,29.68,SSE,158,4.0,5.4,92,0.08,,---,0.87,VWS V14.00,2013-02-27 17:00:00,
2013-02-27 12:05:00,42.4,40.3,29.68,NE,45,5.4,5.4,92,0.08,,---,0.87,VWS V14.00,2013-02-27 17:05:00,
2013-02-27 12:10:00,42.4,40.3,29.68,ENE,68,3.1,3.1,92,0.00,,---,0.91,VWS V14.00,2013-02-27 17:10:00,
2013-02-27 12:15:00,42.3,40.1,29.68,NE,45,3.8,12.1,92,0.00,,---,0.91,VWS V14.00,2013-02-27 17:15:00,
2013-02-27 12:20:00,42.1,39.9,29.68,NE,45,7.4,7.4,92,0.00,,---,0.91,VWS V14.00,2013-02-27 17:20:00,
2013-02-27 12:25:00,41.9,39.8,29.65,East,90,2.5,2.5,92,0.00,,---,0.91,VWS V14.00,2013-02-27 17:25:00,
2013-02-27 12:30:00,41.7,39.6,29.65,WNW,292,3.4,3.4,92,0.00,,---,0.91,VWS V14.00,2013-02-27 17:30:00,
2013-02-27 12:35:00,41.5,39.4,29.65,ESE,112,1.6,1.6,92,0.00,,---,0.91,VWS V14.00,2013-02-27 17:35:00,
2013-02-27 12:40:00,41.4,39.5,29.65,ENE,68,6.3,6.3,93,0.00,,---,0.91,VWS V14.00,2013-02-27 17:40:00,
2013-02-27 12:45:00,41.2,39.3,29.65,ESE,112,3.1,3.1,93,0.00,,---,0.91,VWS V14.00,2013-02-27 17:45:00,
2013-02-27 12:50:00,41.0,39.4,29.65,NNE,22,3.4,4.7,94,0.00,,---,0.91,VWS V14.00,2013-02-27 17:50:00,
2013-02-27 12:55:00,40.8,39.5,29.65,SE,135,3.8,3.8,95,0.04,,---,0.95,VWS V14.00,2013-02-27 17:55:00,
2013-02-27 13:00:00,40.8,39.5,29.65,NNW,338,2.9,5.6,95,0.04,,---,0.95,VWS V14.00,2013-02-27 18:00:00,
2013-02-27 13:05:00,40.6,39.3,29.65,ENE,68,1.6,2.9,95,0.04,,---,0.95,VWS V14.00,2013-02-27 18:05:00,
2013-02-27 13:10:00,40.5,39.4,29.65,North,0,3.6,3.6,96,0.04,,---,1.00,VWS V14.00,2013-02-27 18:10:00,
2013-02-27 13:15:00,40.5,39.4,29.65,ENE,68,6.5,6.5,96,0.04,,---,1.00,VWS V14.00,2013-02-27 18:15:00,
2013-02-27 13:20:00,41.0,40.0,29.65,NE,45,6.5,6.5,96,0.08,,---,1.04,VWS V14.00,2013-02-27 18:20:00,
2013-02-27 13:25:00,41.2,40.1,29.65,NE,45,5.6,5.6,96,0.13,,---,1.08,VWS V14.00,2013-02-27 18:25:00,
2013-02-27 13:30:00,41.5,40.2,29.65,SE,135,2.0,3.6,95,0.13,,---,1.08,VWS V14.00,2013-02-27 18:30:00,
2013-02-27 13:35:00,41.5,40.2,29.65,West,270,3.8,3.8,95,0.13,,---,1.08,VWS V14.00,2013-02-27 18:35:00,
2013-02-27 13:40:00,41.7,40.1,29.62,ESE,112,3.4,9.0,94,0.17,,---,1.12,VWS V14.00,2013-02-27 18:40:00,
2013-02-27 13:45:00,41.5,40.0,29.62,ENE,68,8.5,8.5,94,0.17,,---,1.12,VWS V14.00,2013-02-27 18:45:00,
2013-02-27 13:50:00,41.5,39.7,29.62,NNW,338,1.6,2.9,93,0.17,,---,1.12,VWS V14.00,2013-02-27 18:50:00,
2013-02-27 13:55:00,41.7,39.8,29.62,ENE,68,2.7,3.4,93,0.17,,---,1.12,VWS V14.00,2013-02-27 18:55:00,
2013-02-27 14:00:00,41.7,39.8,29.62,ESE,112,3.6,11.0,93,0.17,,---,1.12,VWS V14.00,2013-02-27 19:00:00,
2013-02-27 14:05:00,41.7,39.6,29.62,SE,135,3.6,6.3,92,0.17,,---,1.12,VWS V14.00,2013-02-27 19:05:00,
2013-02-27 14:10:00,41.7,39.6,29.62,ESE,112,1.6,2.5,92,0.00,,---,1.12,VWS V14.00,2013-02-27 19:10:00,
2013-02-27 14:15:00,41.7,39.6,29.62,NNE,22,4.3,6.5,92,0.00,,---,1.12,VWS V14.00,2013-02-27 19:15:00,
2013-02-27 14:20:00,41.4,39.2,29.62,East,90,5.6,5.6,92,0.04,,---,1.16,VWS V14.00,2013-02-27 19:20:00,
2013-02-27 14:25:00,41.0,38.9,29.62,NE,45,3.4,6.0,92,0.04,,---,1.16,VWS V14.00,2013-02-27 19:25:00,
2013-02-27 14:30:00,40.8,39.0,29.62,NNE,22,8.5,8.5,93,0.04,,---,1.16,VWS V14.00,2013-02-27 19:30:00,
2013-02-27 14:35:00,40.6,38.8,29.62,NNE,22,7.4,7.4,93,0.04,,---,1.16,VWS V14.00,2013-02-27 19:35:00,
2013-02-27 14:40:00,40.5,38.6,29.62,ENE,68,4.3,5.6,93,0.04,,---,1.16,VWS V14.00,2013-02-27 19:40:00,
2013-02-27 14:45:00,40.3,38.4,29.62,NNE,22,9.6,9.6,93,0.04,,---,1.16,VWS V14.00,2013-02-27 19:45:00,
2013-02-27 14:50:00,40.3,38.7,29.62,ESE,112,2.0,5.6,94,0.04,,---,1.16,VWS V14.00,2013-02-27 19:50:00,
2013-02-27 14:55:00,40.5,38.9,29.62,ESE,112,3.6,3.8,94,0.04,,---,1.16,VWS V14.00,2013-02-27 19:55:00,
2013-02-27 15:00:00,40.5,38.9,29.62,WNW,292,6.0,8.7,94,0.04,,---,1.16,VWS V14.00,2013-02-27 20:00:00,
2013-02-27 15:05:00,40.3,38.7,29.62,NE,45,3.6,5.8,94,0.04,,---,1.16,VWS V14.00,2013-02-27 20:05:00,
2013-02-27 15:10:00,40.5,38.9,29.59,NE,45,3.1,10.1,94,0.00,,---,1.16,VWS V14.00,2013-02-27 20:10:00,
2013-02-27 15:15:00,40.3,38.7,29.59,WNW,292,10.1,10.1,94,0.00,,---,1.16,VWS V14.00,2013-02-27 20:15:00,
2013-02-27 15:20:00,40.3,38.7,29.59,NNE,22,17.9,17.9,94,0.00,,---,1.16,VWS V14.00,2013-02-27 20:20:00,
2013-02-27 15:25:00,40.1,38.5,29.59,SE,135,7.4,7.4,94,0.04,,---,1.21,VWS V14.00,2013-02-27 20:25:00,
2013-02-27 15:30:00,39.9,38.3,29.59,East,90,3.8,7.6,94,0.04,,---,1.21,VWS V14.00,2013-02-27 20:30:00,
2013-02-27 15:35:00,39.9,38.3,29.59,NE,45,3.6,12.5,94,0.04,,---,1.21,VWS V14.00,2013-02-27 20:35:00,
2013-02-27 15:40:00,39.7,38.2,29.59,SE,135,6.3,6.3,94,0.04,,---,1.21,VWS V14.00,2013-02-27 20:40:00,
2013-02-27 15:45:00,39.6,38.0,29.59,NNE,22,3.1,6.0,94,0.04,,---,1.21,VWS V14.00,2013-02-27 20:45:00,
2013-02-27 15:50:00,39.6,38.2,29.59,NE,45,5.8,5.8,95,0.04,,---,1.21,VWS V14.00,2013-02-27 20:50:00,
2013-02-27 15:55:00,39.6,38.2,29.59,ENE,68,4.9,4.9,95,0.04,,---,1.21,VWS V14.00,2013-02-27 20:55:00,
2013-02-27 16:00:00,39.4,38.1,29.59,ENE,68,4.3,4.9,95,0.04,,---,1.21,VWS V14.00,2013-02-27 21:00:00,
2013-02-27 16:05:00,39.2,37.9,29.59,ESE,112,1.1,3.8,95,0.04,,---,1.21,VWS V14.00,2013-02-27 21:05:00,
2013-02-27 16:10:00,39.0,38.0,29.62,East,90,2.7,7.4,96,0.00,,---,1.21,VWS V14.00,2013-02-27 21:10:00,
2013-02-27 16:15:00,39.0,38.0,29.62,ESE,112,2.5,3.4,96,0.00,,---,1.21,VWS V14.00,2013-02-27 21:15:00,
2013-02-27 16:20:00,39.0,38.0,29.62,East,90,2.9,5.8,96,0.00,,---,1.21,VWS V14.00,2013-02-27 21:20:00,
2013-02-27 16:25:00,38.8,37.8,29.62,NNE,22,2.9,7.6,96,0.00,,---,1.21,VWS V14.00,2013-02-27 21:25:00,
2013-02-27 16:30:00,38.8,37.8,29.62,ENE,68,2.7,6.5,96,0.00,,---,1.21,VWS V14.00,2013-02-27 21:30:00,
2013-02-27 16:35:00,38.8,37.8,29.62,SSW,202,2.7,4.0,96,0.00,,---,1.21,VWS V14.00,2013-02-27 21:35:00,
2013-02-27 16:40:00,39.0,38.0,29.59,SE,135,3.1,6.0,96,0.00,,---,1.21,VWS V14.00,2013-02-27 21:40:00,
2013-02-27 16:45:00,39.0,38.0,29.59,ENE,68,2.7,5.4,96,0.00,,---,1.21,VWS V14.00,2013-02-27 21:45:00,
2013-02-27 16:50:00,39.0,38.0,29.59,North,0,9.2,9.2,96,0.00,,---,1.21,VWS V14.00,2013-02-27 21:50:00,
2013-02-27 16:55:00,39.0,38.0,29.59,NNW,338,3.4,3.4,96,0.00,,---,1.21,VWS V14.00,2013-02-27 21:55:00,
2013-02-27 17:00:00,39.0,38.0,29.59,NNE,22,5.8,6.0,96,0.00,,---,1.21,VWS V14.00,2013-02-27 22:00:00,
2013-02-27 17:05:00,38.7,37.6,29.59,NE,45,6.3,10.1,96,0.00,,---,1.21,VWS V14.00,2013-02-27 22:05:00,
2013-02-27 17:10:00,38.5,37.4,29.56,NW,315,7.6,10.7,96,0.00,,---,1.21,VWS V14.00,2013-02-27 22:10:00,
2013-02-27 17:15:00,38.3,37.3,29.56,NE,45,4.9,4.9,96,0.00,,---,1.21,VWS V14.00,2013-02-27 22:15:00,
2013-02-27 17:20:00,38.1,37.1,29.56,NNE,22,7.2,8.5,96,0.00,,---,1.21,VWS V14.00,2013-02-27 22:20:00,
2013-02-27 17:25:00,38.1,37.1,29.59,ESE,112,8.1,8.1,96,0.00,,---,1.21,VWS V14.00,2013-02-27 22:25:00,
2013-02-27 17:30:00,38.1,37.1,29.59,NE,45,3.8,11.9,96,0.00,,---,1.21,VWS V14.00,2013-02-27 22:30:00,
2013-02-27 17:35:00,38.1,37.1,29.59,SW,225,3.4,9.4,96,0.00,,---,1.21,VWS V14.00,2013-02-27 22:35:00,
2013-02-27 17:40:00,37.9,36.9,29.59,NNE,22,5.8,5.8,96,0.00,,---,1.21,VWS V14.00,2013-02-27 22:40:00,
2013-02-27 17:45:00,37.9,36.9,29.59,SSE,158,4.3,8.1,96,0.00,,---,1.21,VWS V14.00,2013-02-27 22:45:00,
2013-02-27 17:50:00,37.9,37.2,29.59,ENE,68,3.4,3.4,97,0.00,,---,1.21,VWS V14.00,2013-02-27 22:50:00,
2013-02-27 17:55:00,37.9,37.2,29.59,NNE,22,5.4,5.4,97,0.00,,---,1.21,VWS V14.00,2013-02-27 22:55:00,
2013-02-27 18:00:00,37.8,37.0,29.59,NE,45,2.9,5.6,97,0.00,,---,1.21,VWS V14.00,2013-02-27 23:00:00,
2013-02-27 18:05:00,37.8,37.0,29.59,East,90,4.0,5.8,97,0.00,,---,1.21,VWS V14.00,2013-02-27 23:05:00,
2013-02-27 18:10:00,37.6,36.8,29.59,NE,45,6.0,7.8,97,0.00,,---,1.21,VWS V14.00,2013-02-27 23:10:00,
2013-02-27 18:15:00,37.6,36.8,29.59,East,90,1.6,8.1,97,0.00,,---,1.21,VWS V14.00,2013-02-27 23:15:00,
2013-02-27 18:20:00,37.6,36.8,29.59,NE,45,5.6,6.5,97,0.00,,---,1.21,VWS V14.00,2013-02-27 23:20:00,
2013-02-27 18:25:00,37.6,36.8,29.56,NE,45,1.1,3.6,97,0.00,,---,1.21,VWS V14.00,2013-02-27 23:25:00,
2013-02-27 18:30:00,37.6,36.8,29.56,ENE,68,3.4,5.6,97,0.00,,---,1.21,VWS V14.00,2013-02-27 23:30:00,
2013-02-27 18:35:00,37.4,36.6,29.56,East,90,5.4,5.6,97,0.00,,---,1.21,VWS V14.00,2013-02-27 23:35:00,
2013-02-27 18:40:00,37.2,36.5,29.59,WNW,292,1.1,6.0,97,0.00,,---,1.21,VWS V14.00,2013-02-27 23:40:00,
2013-02-27 18:45:00,37.2,36.5,29.59,NNE,22,3.1,4.3,97,0.00,,---,1.21,VWS V14.00,2013-02-27 23:45:00,
2013-02-27 18:50:00,37.2,36.5,29.59,NE,45,3.4,6.3,97,0.00,,---,1.21,VWS V14.00,2013-02-27 23:50:00,
2013-02-27 18:55:00,37.0,36.3,29.59,NNE,22,3.1,3.1,97,0.00,,---,1.21,VWS V14.00,2013-02-27 23:55:00,
2013-02-27 19:00:00,37.0,36.3,29.59,East,90,4.7,6.0,97,0.00,,---,1.21,VWS V14.00,2013-02-28 00:00:00,
2013-02-27 19:05:00,36.9,36.1,29.59,ENE,68,7.4,7.4,97,0.00,,---,1.21,VWS V14.00,2013-02-28 00:05:00,
2013-02-27 19:10:00,36.9,36.1,29.59,ENE,68,3.8,3.8,97,0.00,,---,1.21,VWS V14.00,2013-02-28 00:10:00,
2013-02-27 19:15:00,36.9,36.1,29.59,ENE,68,7.4,7.4,97,0.00,,---,1.21,VWS V14.00,2013-02-28 00:15:00,
2013-02-27 19:20:00,36.7,35.9,29.59,East,90,3.6,4.3,97,0.00,,---,1.21,VWS V14.00,2013-02-28 00:20:00,
2013-02-27 19:25:00,36.7,35.9,29.59,NNE,22,2.5,6.0,97,0.00,,---,1.21,VWS V14.00,2013-02-28 00:25:00,
2013-02-27 19:30:00,36.7,35.9,29.59,NW,315,3.4,8.7,97,0.00,,---,1.21,VWS V14.00,2013-02-28 00:30:00,
2013-02-27 19:35:00,36.7,35.9,29.59,ENE,68,2.0,2.5,97,0.00,,---,1.21,VWS V14.00,2013-02-28 00:35:00,
2013-02-27 19:40:00,36.7,36.2,29.59,ENE,68,2.9,3.8,98,0.00,,---,1.21,VWS V14.00,2013-02-28 00:40:00,
2013-02-27 19:45:00,36.7,35.9,29.59,West,270,2.9,2.9,97,0.00,,---,1.21,VWS V14.00,2013-02-28 00:45:00,
2013-02-27 19:50:00,36.5,36.0,29.59,East,90,2.2,2.2,98,0.00,,---,1.21,VWS V14.00,2013-02-28 00:50:00,
2013-02-27 19:55:00,36.5,35.7,29.59,West,270,2.7,3.6,97,0.00,,---,1.21,VWS V14.00,2013-02-28 00:55:00,
2013-02-27 20:00:00,36.5,35.7,29.59,ENE,68,1.1,1.6,97,0.00,,---,1.21,VWS V14.00,2013-02-28 01:00:00,
2013-02-27 20:05:00,36.3,35.5,29.59,WSW,248,0.0,0.0,97,0.00,,---,1.21,VWS V14.00,2013-02-28 01:05:00,
2013-02-27 20:10:00,36.3,35.5,29.59,NNE,22,2.9,2.9,97,0.00,,---,1.21,VWS V14.00,2013-02-28 01:10:00,
2013-02-27 20:15:00,36.3,35.8,29.59,ENE,68,2.9,2.9,98,0.00,,---,1.21,VWS V14.00,2013-02-28 01:15:00,
2013-02-27 20:20:00,36.5,36.0,29.59,NE,45,3.8,3.8,98,0.00,,---,1.21,VWS V14.00,2013-02-28 01:20:00,
2013-02-27 20:25:00,36.5,36.0,29.59,NE,45,3.4,3.4,98,0.00,,---,1.21,VWS V14.00,2013-02-28 01:25:00,
2013-02-27 20:30:00,36.3,35.8,29.59,NE,45,1.6,1.6,98,0.00,,---,1.21,VWS V14.00,2013-02-28 01:30:00,
2013-02-27 20:35:00,36.3,35.8,29.59,WSW,248,1.6,2.2,98,0.00,,---,1.21,VWS V14.00,2013-02-28 01:35:00,
2013-02-27 20:40:00,36.3,35.8,29.59,NE,45,1.1,3.6,98,0.00,,---,1.21,VWS V14.00,2013-02-28 01:40:00,
2013-02-27 20:45:00,36.5,36.0,29.59,WNW,292,1.6,3.4,98,0.00,,---,1.21,VWS V14.00,2013-02-28 01:45:00,
2013-02-27 20:50:00,36.3,35.8,29.59,SE,135,0.0,0.0,98,0.00,,---,1.21,VWS V14.00,2013-02-28 01:50:00,
2013-02-27 20:55:00,36.3,35.8,29.59,NE,45,1.3,1.3,98,0.00,,---,1.21,VWS V14.00,2013-02-28 01:55:00,
2013-02-27 21:00:00,36.3,35.8,29.59,WNW,292,2.0,2.2,98,0.00,,---,1.21,VWS V14.00,2013-02-28 02:00:00,
2013-02-27 21:05:00,36.3,35.8,29.59,NE,45,0.0,0.0,98,0.00,,---,1.21,VWS V14.00,2013-02-28 02:05:00,
2013-02-27 21:10:00,36.3,35.8,29.59,NNE,22,2.0,2.0,98,0.00,,---,1.21,VWS V14.00,2013-02-28 02:10:00,
2013-02-27 21:15:00,36.3,35.8,29.59,NNE,22,0.0,0.0,98,0.00,,---,1.21,VWS V14.00,2013-02-28 02:15:00,
2013-02-27 21:20:00,36.1,35.6,29.59,ENE,68,0.0,0.0,98,0.00,,---,1.21,VWS V14.00,2013-02-28 02:20:00,
2013-02-27 21:25:00,36.1,35.6,29.59,ENE,68,3.4,3.4,98,0.00,,---,1.21,VWS V14.00,2013-02-28 02:25:00,
2013-02-27 21:30:00,36.1,35.6,29.59,NW,315,2.7,3.4,98,0.00,,---,1.21,VWS V14.00,2013-02-28 02:30:00,
2013-02-27 21:35:00,36.3,35.8,29.59,SW,225,1.6,1.6,98,0.00,,---,1.21,VWS V14.00,2013-02-28 02:35:00,
2013-02-27 21:40:00,36.1,35.6,29.59,West,270,0.0,0.0,98,0.00,,---,1.21,VWS V14.00,2013-02-28 02:40:00,
2013-02-27 21:45:00,36.0,35.5,29.59,WNW,292,0.0,0.0,98,0.00,,---,1.21,VWS V14.00,2013-02-28 02:45:00,
2013-02-27 21:50:00,36.0,35.5,29.59,NW,315,0.0,0.0,98,0.00,,---,1.21,VWS V14.00,2013-02-28 02:50:00,
2013-02-27 21:55:00,36.0,35.5,29.59,NNE,22,0.0,0.0,98,0.00,,---,1.21,VWS V14.00,2013-02-28 02:55:00,
2013-02-27 22:00:00,35.8,35.3,29.59,NW,315,0.9,1.3,98,0.00,,---,1.21,VWS V14.00,2013-02-28 03:00:00,
2013-02-27 22:05:00,35.8,35.3,29.59,ENE,68,0.0,0.0,98,0.00,,---,1.21,VWS V14.00,2013-02-28 03:05:00,
2013-02-27 22:10:00,35.6,35.1,29.59,ENE,68,0.0,0.0,98,0.00,,---,1.21,VWS V14.00,2013-02-28 03:10:00,
2013-02-27 22:15:00,35.6,35.1,29.59,ENE,68,0.0,0.0,98,0.00,,---,1.21,VWS V14.00,2013-02-28 03:15:00,
2013-02-27 22:20:00,35.6,35.1,29.59,ESE,112,0.0,0.0,98,0.00,,---,1.21,VWS V14.00,2013-02-28 03:20:00,
2013-02-27 22:25:00,35.4,34.9,29.59,ESE,112,0.0,0.0,98,0.00,,---,1.21,VWS V14.00,2013-02-28 03:25:00,
2013-02-27 22:30:00,35.4,34.9,29.59,SE,135,0.0,0.0,98,0.00,,---,1.21,VWS V14.00,2013-02-28 03:30:00,
2013-02-27 22:35:00,35.4,34.9,29.59,SSW,202,1.3,1.6,98,0.00,,---,1.21,VWS V14.00,2013-02-28 03:35:00,
2013-02-27 22:40:00,35.4,34.9,29.62,SSE,158,0.0,0.0,98,0.00,,---,1.21,VWS V14.00,2013-02-28 03:40:00,
2013-02-27 22:45:00,35.2,34.7,29.62,East,90,0.0,0.0,98,0.00,,---,1.21,VWS V14.00,2013-02-28 03:45:00,
2013-02-27 22:50:00,35.2,34.7,29.62,ENE,68,0.0,0.0,98,0.00,,---,1.21,VWS V14.00,2013-02-28 03:50:00,
2013-02-27 22:55:00,35.2,34.7,29.62,SSW,202,0.0,0.0,98,0.00,,---,1.21,VWS V14.00,2013-02-28 03:55:00,
2013-02-27 23:00:00,35.1,34.5,29.62,NNE,22,0.9,1.3,98,0.00,,---,1.21,VWS V14.00,2013-02-28 04:00:00,
2013-02-27 23:05:00,35.1,34.5,29.62,NW,315,0.0,0.0,98,0.00,,---,1.21,VWS V14.00,2013-02-28 04:05:00,
2013-02-27 23:10:00,34.9,34.4,29.59,NNW,338,0.0,0.0,98,0.00,,---,1.21,VWS V14.00,2013-02-28 04:10:00,
2013-02-27 23:15:00,34.9,34.4,29.59,NE,45,0.0,0.0,98,0.00,,---,1.21,VWS V14.00,2013-02-28 04:15:00,
2013-02-27 23:20:00,34.9,34.4,29.59,NE,45,0.0,0.0,98,0.00,,---,1.21,VWS V14.00,2013-02-28 04:20:00,
2013-02-27 23:25:00,34.7,34.2,29.62,NE,45,0.0,0.0,98,0.00,,---,1.21,VWS V14.00,2013-02-28 04:25:00,
2013-02-27 23:30:00,34.7,34.2,29.62,NE,45,0.0,0.0,98,0.00,,---,1.21,VWS V14.00,2013-02-28 04:30:00,
2013-02-27 23:35:00,34.7,34.2,29.62,WNW,292,0.0,0.0,98,0.00,,---,1.21,VWS V14.00,2013-02-28 04:35:00,
2013-02-27 23:40:00,34.7,34.2,29.59,SE,135,0.0,0.0,98,0.00,,---,1.21,VWS V14.00,2013-02-28 04:40:00,
2013-02-27 23:45:00,34.5,34.0,29.59,ENE,68,0.0,0.0,98,0.00,,---,1.21,VWS V14.00,2013-02-28 04:45:00,
2013-02-27 23:50:00,34.5,34.0,29.59,NNE,22,0.0,0.0,98,0.00,,---,1.21,VWS V14.00,2013-02-28 04:50:00,
2013-02-27 23:55:00,34.5,34.0,29.59,NW,315,0.0,0.0,98,0.00,,---,1.21,VWS V14.00,2013-02-28 04:55:00,